createdAt,value
2023-04-26T07:28:36.939Z,41.9
2023-04-26T07:34:32.504Z,39.8
2023-04-26T07:40:23.675Z,38.7
2023-04-26T07:46:16.726Z,37.9
2023-04-26T07:52:09.314Z,37.3
2023-04-26T07:58:02.700Z,36.8
2023-04-26T08:04:08.712Z,36.4
2023-04-26T08:10:02.497Z,36.1
2023-04-26T08:15:56.843Z,35.8
2023-04-26T08:21:49.685Z,35.6
2023-04-26T08:27:42.592Z,35.4
2023-04-26T08:33:34.610Z,35.3
2023-04-26T08:39:27.506Z,35.2
2023-04-26T08:45:22.525Z,41.4
2023-04-26T08:50:58.121Z,38.9
2023-04-26T08:56:51.091Z,49.2
2023-04-26T09:02:43.240Z,46.6
2023-04-26T09:08:36.882Z,45.7
2023-04-26T09:14:31.836Z,46
2023-04-26T09:20:09.863Z,45.7
2023-04-26T09:26:00.938Z,45.1
2023-04-26T09:31:54.405Z,45.6
2023-04-26T09:37:57.173Z,46
2023-04-26T09:43:35.885Z,45.4
2023-04-26T09:49:29.365Z,44.8
2023-04-26T09:55:33.923Z,46.9
2023-04-26T10:01:26.881Z,48.2
2023-04-26T10:07:21.025Z,50.1
2023-04-26T10:13:12.848Z,49.4
2023-04-26T10:18:48.454Z,49.4
2023-04-26T10:24:25.065Z,48.8
2023-04-26T10:30:24.036Z,49.6
2023-04-26T10:36:15.892Z,48.4
2023-04-26T10:42:08.388Z,50
2023-04-26T10:47:45.908Z,50.6
2023-04-26T10:53:37.819Z,51.3
2023-04-26T10:59:54.817Z,52.1
2023-04-26T11:05:57.695Z,51.2
2023-04-26T11:11:33.175Z,52.5
2023-04-26T11:16:57.365Z,53.9
2023-04-26T11:22:18.303Z,54
2023-04-26T11:27:53.601Z,53.3
2023-04-26T11:33:46.446Z,50.8
2023-04-26T11:39:38.814Z,51.9
2023-04-26T11:45:29.038Z,54.1
2023-04-26T11:51:21.900Z,51.5
2023-04-26T12:03:05.408Z,49.8
2023-04-26T12:09:00.581Z,50.2
2023-04-26T12:14:53.098Z,49.7
2023-04-26T12:20:54.873Z,50.1
2023-04-26T12:26:35.073Z,49.5
2023-04-26T12:32:27.671Z,49.3
2023-04-26T12:38:34.668Z,48.3
2023-04-26T12:44:26.685Z,47.7
2023-04-26T12:50:19.557Z,48.6
2023-04-26T12:55:56.438Z,47.6
2023-04-26T13:01:34.347Z,47.1
2023-04-26T13:07:14.120Z,48.9
2023-04-26T13:12:33.892Z,50
2023-04-26T13:18:20.317Z,48.2
2023-04-26T13:23:56.603Z,47.1
2023-04-26T13:29:50.608Z,45.8
2023-04-26T13:35:46.968Z,44
2023-04-26T13:41:40.401Z,41.9
2023-04-26T13:47:31.594Z,40.6
2023-04-26T13:53:24.258Z,39.7
2023-04-26T13:59:15.853Z,38.8
2023-04-26T14:05:09.699Z,38.1
2023-04-26T14:11:01.870Z,37.6
2023-04-26T14:17:09.462Z,34.1
2023-04-26T14:23:01.537Z,34.3
2023-04-26T14:28:53.737Z,34.8
2023-04-26T14:34:47.378Z,35
2023-04-26T14:40:38.583Z,35.1
2023-04-26T14:46:48.922Z,35.2
2023-04-26T14:52:42.898Z,35.1
2023-04-26T14:58:37.931Z,35.1
2023-04-26T15:04:33.838Z,35
2023-04-26T15:10:22.473Z,34.9
2023-04-26T15:15:58.631Z,34.8
2023-04-26T15:21:51.289Z,34.8
2023-04-26T15:27:27.306Z,34.6
2023-04-26T15:33:04.314Z,34.5
2023-04-26T15:38:57.030Z,34.4
2023-04-26T15:44:50.024Z,34.3
2023-04-26T15:50:41.954Z,34.3
2023-04-26T15:56:20.129Z,34.2
2023-04-26T16:02:13.291Z,34.1
2023-04-26T16:08:07.603Z,34
2023-04-26T16:14:27.916Z,33.9
2023-04-26T16:20:20.617Z,33.8
2023-04-26T16:26:12.773Z,33.8
2023-04-26T16:32:07.052Z,33.7
2023-04-26T16:37:59.417Z,33.6
2023-04-26T16:43:51.010Z,33.6
2023-04-26T16:49:45.998Z,33.5
2023-04-26T16:55:38.034Z,33.4
2023-04-26T17:00:58.992Z,33.4
2023-04-26T17:06:25.451Z,33.3
2023-04-26T17:12:17.376Z,33.3
2023-04-26T17:18:09.143Z,33.2
2023-04-26T17:24:01.001Z,33.2
2023-04-26T17:29:53.224Z,33.1
2023-04-26T17:35:44.916Z,33.1
2023-04-26T17:41:36.596Z,33
2023-04-26T17:47:28.217Z,33
2023-04-26T17:53:22.276Z,32.9
2023-04-26T17:58:59.325Z,32.9
2023-04-26T18:04:55.104Z,32.8
2023-04-26T18:10:48.416Z,32.8
2023-04-26T18:16:40.769Z,32.8
2023-04-26T18:22:33.618Z,32.8
2023-04-26T18:28:25.178Z,32.7
2023-04-26T18:34:18.778Z,32.7
2023-04-26T18:40:10.822Z,32.6
2023-04-26T18:46:02.504Z,32.6
2023-04-26T18:51:55.333Z,32.6
2023-04-26T18:57:51.315Z,32.5
2023-04-26T19:03:45.220Z,32.5
2023-04-26T19:09:24.959Z,32.5
2023-04-26T19:15:31.535Z,32.4
2023-04-26T19:21:25.329Z,32.4
2023-04-26T19:27:18.646Z,32.4
2023-04-26T19:33:11.843Z,32.4
2023-04-26T19:39:03.873Z,32.3
2023-04-26T19:44:45.136Z,32.3
2023-04-26T19:50:39.345Z,32.3
2023-04-26T19:56:17.771Z,32.3
2023-04-26T20:01:56.228Z,32.2
2023-04-26T20:07:51.013Z,32.2
2023-04-26T20:13:43.905Z,32.1
2023-04-26T20:19:38.016Z,32.1
2023-04-26T20:25:31.918Z,32.1
2023-04-26T20:31:09.063Z,32.1
2023-04-26T20:37:03.767Z,32
2023-04-26T20:42:56.779Z,32
2023-04-26T20:48:48.821Z,31.9
2023-04-26T20:54:41.220Z,31.9
2023-04-26T21:00:33.035Z,31.9
2023-04-26T21:06:27.688Z,31.9
2023-04-26T21:12:19.606Z,31.9
2023-04-26T21:18:11.556Z,31.8
2023-04-26T21:24:01.929Z,31.8
2023-04-26T21:29:53.514Z,31.8
2023-04-26T21:35:46.059Z,31.8
2023-04-26T21:41:21.538Z,31.7
2023-04-26T21:47:18.550Z,31.7
2023-04-26T21:53:10.107Z,31.7
2023-04-26T21:59:02.058Z,31.6
2023-04-26T22:04:55.120Z,31.6
2023-04-26T22:10:47.345Z,31.6
2023-04-26T22:16:37.824Z,31.6
2023-04-26T22:22:29.723Z,31.6
2023-04-26T22:28:21.243Z,31.5
2023-04-26T22:34:24.919Z,31.5
2023-04-26T22:40:24.053Z,31.4
2023-04-26T22:46:16.005Z,31.4
2023-04-26T22:52:31.259Z,31.4
2023-04-26T22:58:06.937Z,31.4
2023-04-26T23:03:44.586Z,31.4
2023-04-26T23:09:35.210Z,31.3
2023-04-26T23:15:29.053Z,31.3
2023-04-26T23:21:05.383Z,31.3
2023-04-26T23:26:57.415Z,31.3
2023-04-26T23:32:49.215Z,31.3
2023-04-26T23:38:46.072Z,31.2
2023-04-26T23:50:13.250Z,31.1
2023-04-26T23:56:04.612Z,31.1
